Terminal Aerodrome Forecast
Issued by NWS Wilmington, OH

Current Version | Previous Version | Text Only | Print | Product List | Glossary Off
Versions: 1 2 3 4 5 6 7 8 9 10 11 12 13 14 15 16 17 18 19 20 21 22 23 24 25 26 27

000
FTUS41 KILN 241500 AAA
TAFCVG
TAF AMD
KCVG 241500Z 2415/2518 19006KT P6SM SCT250
     FM242000 17005KT P6SM SCT120 BKN250
     FM250200 12005KT P6SM OVC080
     FM250800 12006KT P6SM VCSH SCT035 OVC050
     FM251300 11011KT P6SM VCSH OVC025=

USA.gov is the U.S. government's official web portal to all federal, state and local government web resources and services.